Time;durP1;ratioP1;P1;durP2;ratioP2;P2;SDS_P1;SDS_P2;PMS_P1;PMS_P2;Temp;Humidity;BMP_temperature;BMP_pressure;BME280_temperature;BME280_humidity;BME280_pressure;Samples;Min_cycle;Max_cycle;Signal;HPM_P1;HPM_P2
2022/05/06 00:01:06;;;;;;;8.10;7.35;;;13.50;99.90;;;;;;5040110;28;20175;-77
2022/05/06 00:03:31;;;;;;;7.45;6.75;;;13.50;99.90;;;;;;5052077;28;20233;-76
2022/05/06 00:05:57;;;;;;;6.85;6.25;;;13.40;99.90;;;;;;5060239;28;20284;-77
2022/05/06 00:08:22;;;;;;;7.70;7.10;;;13.50;99.90;;;;;;5056731;28;20184;-77
2022/05/06 00:10:48;;;;;;;8.02;7.22;;;13.40;99.90;;;;;;5052505;28;20238;-77
2022/05/06 00:13:14;;;;;;;6.82;6.25;;;13.40;99.90;;;;;;5056323;28;20272;-76
2022/05/06 00:15:40;;;;;;;7.95;7.15;;;13.40;99.90;;;;;;5062419;28;20179;-76
2022/05/06 00:18:05;;;;;;;7.38;6.78;;;13.40;99.90;;;;;;5057926;28;20202;-77
2022/05/06 00:20:31;;;;;;;8.18;7.45;;;13.30;99.90;;;;;;5056100;28;20182;-77
2022/05/06 00:23:00;;;;;;;7.47;6.78;;;13.30;99.90;;;;;;5055808;28;20214;-77
2022/05/06 00:25:26;;;;;;;7.38;6.78;;;13.30;99.90;;;;;;5054668;28;20182;-77
2022/05/06 00:27:52;;;;;;;8.00;7.20;;;13.30;99.90;;;;;;5059892;28;20219;-76
2022/05/06 00:30:18;;;;;;;9.00;8.30;;;13.30;99.90;;;;;;5066101;28;20183;-76
2022/05/06 00:32:44;;;;;;;8.98;8.18;;;13.30;99.90;;;;;;5055137;28;20200;-77
2022/05/06 00:35:10;;;;;;;8.07;7.30;;;13.30;99.90;;;;;;5048622;28;20182;-77
2022/05/06 00:37:35;;;;;;;7.60;7.07;;;13.30;99.90;;;;;;5048742;28;20197;-77
2022/05/06 00:40:01;;;;;;;7.78;7.18;;;13.30;99.90;;;;;;5049963;28;20590;-76
2022/05/06 00:42:27;;;;;;;8.68;7.97;;;13.20;99.90;;;;;;5050496;28;20667;-77
2022/05/06 00:44:53;;;;;;;8.43;7.72;;;13.20;99.90;;;;;;5060648;28;20207;-77
2022/05/06 00:47:20;;;;;;;8.57;7.78;;;13.20;99.90;;;;;;5051162;28;20200;-76
2022/05/06 00:49:47;;;;;;;8.23;7.53;;;13.20;99.90;;;;;;5056364;28;20176;-77
2022/05/06 00:52:12;;;;;;;8.45;7.40;;;13.20;99.90;;;;;;5051642;28;20662;-77
2022/05/06 00:54:40;;;;;;;8.65;7.85;;;13.20;99.90;;;;;;5044326;28;20208;-77
2022/05/06 00:57:07;;;;;;;8.90;8.10;;;13.10;99.90;;;;;;5052680;28;20682;-76
2022/05/06 01:00:17;;;;;;;8.35;7.75;;;13.10;99.90;;;;;;5048926;28;20177;-77
2022/05/06 01:02:20;;;;;;;9.23;7.97;;;13.10;99.90;;;;;;5061085;28;20240;-77
2022/05/06 01:04:46;;;;;;;8.48;7.78;;;13.10;99.90;;;;;;5048683;28;20192;-76
2022/05/06 01:07:13;;;;;;;9.43;8.45;;;13.10;99.90;;;;;;5039255;28;20214;-76
2022/05/06 01:09:39;;;;;;;8.25;7.55;;;13.10;99.90;;;;;;5049443;28;20234;-77
2022/05/06 01:12:05;;;;;;;9.13;7.93;;;13.10;99.90;;;;;;5058327;28;20199;-77
2022/05/06 01:14:33;;;;;;;8.95;8.15;;;13.00;99.90;;;;;;5056948;28;20196;-76
2022/05/06 01:16:58;;;;;;;9.25;8.48;;;13.00;99.90;;;;;;5051239;28;20196;-77
2022/05/06 01:19:24;;;;;;;8.40;7.70;;;13.00;99.90;;;;;;5050331;28;20383;-77
2022/05/06 01:21:53;;;;;;;10.15;8.40;;;12.90;99.90;;;;;;5058714;28;20619;-77
2022/05/06 01:24:19;;;;;;;10.27;9.13;;;12.90;99.90;;;;;;5048898;28;20180;-76
2022/05/06 01:27:01;;;;;;;8.77;7.97;;;12.90;99.90;;;;;;5052496;28;20210;-77
2022/05/06 01:29:29;;;;;;;8.18;7.47;;;12.90;99.90;;;;;;5057229;28;20199;-76
2022/05/06 01:31:56;;;;;;;8.60;7.80;;;12.90;99.90;;;;;;5045166;28;20223;-78
2022/05/06 01:34:24;;;;;;;8.40;7.63;;;12.80;99.90;;;;;;5058427;28;21154;-76
2022/05/06 01:36:53;;;;;;;8.98;8.18;;;12.80;99.90;;;;;;5034034;28;20207;-76
2022/05/06 01:39:23;;;;;;;8.80;8.07;;;12.80;99.90;;;;;;5055697;28;20194;-76
2022/05/06 01:41:53;;;;;;;8.77;7.78;;;12.80;99.90;;;;;;5050371;28;20177;-76
2022/05/06 01:44:21;;;;;;;8.95;8.23;;;12.80;99.90;;;;;;5053495;28;20187;-76
2022/05/06 01:46:47;;;;;;;8.10;7.50;;;12.80;99.90;;;;;;5058930;28;20214;-77
2022/05/06 01:49:15;;;;;;;10.02;8.93;;;12.70;99.90;;;;;;5040678;28;20183;-77
2022/05/06 01:51:42;;;;;;;9.23;8.43;;;12.70;99.90;;;;;;5052157;28;20704;-76
2022/05/06 01:54:09;;;;;;;8.57;7.68;;;12.70;99.90;;;;;;5054272;28;20187;-77
2022/05/06 01:56:35;;;;;;;8.52;7.82;;;12.70;99.90;;;;;;5056476;28;20206;-76
2022/05/06 01:59:01;;;;;;;9.63;8.82;;;12.60;99.90;;;;;;5059951;28;20207;-77
2022/05/06 02:01:27;;;;;;;9.15;8.32;;;12.70;99.90;;;;;;5061766;28;20665;-76
2022/05/06 02:06:36;;;;;;;9.02;8.30;;;12.60;99.90;;;;;;5049147;28;20913;-77
2022/05/06 02:09:02;;;;;;;9.57;8.63;;;12.60;99.90;;;;;;5056343;28;20175;-77
2022/05/06 02:11:28;;;;;;;9.43;8.63;;;12.60;99.90;;;;;;5047467;28;20231;-78
2022/05/06 02:13:55;;;;;;;10.75;9.55;;;12.60;99.90;;;;;;5047541;28;20324;-76
2022/05/06 02:16:20;;;;;;;10.57;9.27;;;12.50;99.90;;;;;;5050277;28;20212;-77
2022/05/06 02:18:49;;;;;;;10.50;9.60;;;12.50;99.90;;;;;;5058089;28;20176;-78
2022/05/06 02:21:15;;;;;;;10.57;9.50;;;12.50;99.90;;;;;;5052925;28;20180;-77
2022/05/06 02:23:40;;;;;;;10.63;9.63;;;12.50;99.90;;;;;;5053917;28;20228;-77
2022/05/06 02:26:06;;;;;;;10.98;9.98;;;12.40;99.90;;;;;;5059593;28;20214;-76
2022/05/06 02:28:32;;;;;;;11.98;10.77;;;12.40;99.90;;;;;;5057932;28;20195;-76
2022/05/06 02:33:43;;;;;;;12.35;11.15;;;12.30;99.90;;;;;;5051963;28;20722;-77
2022/05/06 02:36:09;;;;;;;11.27;10.25;;;12.30;99.90;;;;;;5045798;28;20206;-76
2022/05/06 02:38:35;;;;;;;11.52;10.52;;;12.30;99.90;;;;;;5049255;28;20552;-76
2022/05/06 02:41:01;;;;;;;12.48;11.00;;;12.30;99.90;;;;;;5056978;28;20262;-78
2022/05/06 02:43:27;;;;;;;11.20;10.18;;;12.30;99.90;;;;;;5048001;28;20283;-76
2022/05/06 02:45:52;;;;;;;11.50;10.30;;;12.30;99.90;;;;;;5045555;28;20717;-76
2022/05/06 02:48:19;;;;;;;12.18;11.10;;;12.30;99.90;;;;;;5043714;28;20176;-76
2022/05/06 02:50:44;;;;;;;11.85;10.95;;;12.20;99.90;;;;;;5054011;28;20184;-76
2022/05/06 02:53:10;;;;;;;11.68;10.43;;;12.20;99.90;;;;;;5059396;28;20200;-76
2022/05/06 02:55:38;;;;;;;11.25;10.00;;;12.20;99.90;;;;;;5054273;28;20180;-76
2022/05/06 02:58:04;;;;;;;12.27;10.32;;;12.20;99.90;;;;;;5053796;28;20239;-76
2022/05/06 03:00:30;;;;;;;12.60;10.48;;;12.20;99.90;;;;;;5053651;28;20180;-77
2022/05/06 03:02:56;;;;;;;11.27;10.23;;;12.20;99.90;;;;;;5039120;28;20195;-76
2022/05/06 03:05:23;;;;;;;11.38;10.38;;;12.20;99.90;;;;;;5057950;28;20551;-76
2022/05/06 03:07:49;;;;;;;11.85;10.82;;;12.20;99.90;;;;;;5055794;28;20207;-76
2022/05/06 03:10:15;;;;;;;13.93;11.00;;;12.20;99.90;;;;;;5055258;28;20189;-76
2022/05/06 03:12:43;;;;;;;11.80;10.60;;;12.20;99.90;;;;;;5055406;28;20298;-76
2022/05/06 03:15:15;;;;;;;12.35;11.05;;;12.10;99.90;;;;;;5062262;28;20171;-78
2022/05/06 03:17:41;;;;;;;11.57;10.50;;;12.10;99.90;;;;;;5057613;28;20207;-76
2022/05/06 03:20:08;;;;;;;12.15;10.90;;;12.10;99.90;;;;;;5053676;28;20651;-76
2022/05/06 03:22:40;;;;;;;12.15;10.98;;;12.10;99.90;;;;;;5055236;28;20172;-76
2022/05/06 03:25:07;;;;;;;11.15;10.20;;;12.10;99.90;;;;;;5058972;28;20257;-76
2022/05/06 03:30:16;;;;;;;11.77;9.85;;;12.10;99.90;;;;;;5056107;28;20279;-77
2022/05/06 03:32:42;;;;;;;12.63;10.95;;;12.10;99.90;;;;;;5059294;28;20766;-76
2022/05/06 03:35:08;;;;;;;11.75;10.55;;;12.10;99.90;;;;;;5063188;28;20187;-76
2022/05/06 03:37:36;;;;;;;11.15;10.05;;;12.10;99.90;;;;;;5055359;28;20569;-79
2022/05/06 03:40:03;;;;;;;11.10;10.07;;;12.10;99.90;;;;;;5056485;28;20661;-76
2022/05/06 03:42:28;;;;;;;12.55;11.27;;;12.10;99.90;;;;;;5054936;28;20179;-76
2022/05/06 03:44:54;;;;;;;11.23;10.30;;;12.10;99.90;;;;;;5058881;28;20554;-76
2022/05/06 03:47:21;;;;;;;11.68;10.60;;;12.10;99.90;;;;;;5051322;28;20204;-77
2022/05/06 03:51:20;;;;;;;11.85;10.75;;;12.00;99.90;;;;;;5065122;28;20188;-77
2022/05/06 03:52:34;;;;;;;11.88;10.77;;;12.00;99.90;;;;;;5054355;28;20219;-76
2022/05/06 03:54:59;;;;;;;12.15;11.00;;;12.10;99.90;;;;;;5048199;28;20184;-78
2022/05/06 03:57:25;;;;;;;11.27;10.15;;;12.00;99.90;;;;;;5059137;28;20301;-77
2022/05/06 03:59:50;;;;;;;11.65;10.55;;;12.00;99.90;;;;;;5046344;28;20188;-76
2022/05/06 04:02:16;;;;;;;11.43;10.38;;;12.00;99.90;;;;;;5055023;28;20187;-76
2022/05/06 04:04:42;;;;;;;12.02;10.30;;;12.00;99.90;;;;;;5056074;28;20267;-77
2022/05/06 04:07:07;;;;;;;11.88;9.93;;;12.00;99.90;;;;;;5047435;28;20674;-76
2022/05/06 04:09:33;;;;;;;10.93;9.93;;;12.00;99.90;;;;;;5054250;28;20192;-77
2022/05/06 04:11:59;;;;;;;11.88;10.55;;;12.00;99.90;;;;;;5066041;28;20278;-76
2022/05/06 04:14:25;;;;;;;11.50;10.50;;;12.00;99.90;;;;;;5055768;28;20241;-76
2022/05/06 04:16:51;;;;;;;11.93;10.70;;;12.00;99.90;;;;;;5058570;28;20196;-76
2022/05/06 04:19:17;;;;;;;10.68;9.43;;;12.00;99.90;;;;;;5049392;28;20183;-77
2022/05/06 04:24:27;;;;;;;12.20;10.98;;;12.00;99.90;;;;;;5050967;28;20252;-77
2022/05/06 04:26:52;;;;;;;9.73;8.82;;;12.10;99.90;;;;;;5054627;28;20278;-77
2022/05/06 04:29:18;;;;;;;13.63;9.85;;;12.00;99.90;;;;;;5055917;28;20192;-76
2022/05/06 04:31:53;;;;;;;9.27;8.48;;;12.10;99.90;;;;;;5039230;28;20241;-76
2022/05/06 04:34:18;;;;;;;9.45;8.63;;;12.20;99.90;;;;;;5061068;28;20266;-77
2022/05/06 04:36:44;;;;;;;9.98;9.15;;;12.30;99.90;;;;;;5061481;28;20231;-76
2022/05/06 04:39:10;;;;;;;9.75;8.85;;;12.30;99.90;;;;;;5061787;28;20175;-76
2022/05/06 04:41:35;;;;;;;9.30;8.50;;;12.30;99.90;;;;;;5060536;28;20270;-78
2022/05/06 04:44:01;;;;;;;10.25;9.38;;;12.30;99.90;;;;;;5052919;28;20273;-77
2022/05/06 04:46:27;;;;;;;10.50;9.70;;;12.30;99.90;;;;;;5053396;28;20208;-76
2022/05/06 04:48:52;;;;;;;9.52;8.80;;;12.30;99.90;;;;;;5054768;28;20241;-76
2022/05/06 04:51:18;;;;;;;11.68;8.88;;;12.30;99.90;;;;;;5054684;28;20207;-76
2022/05/06 04:53:44;;;;;;;10.15;9.15;;;12.40;99.90;;;;;;5054927;28;20207;-77
2022/05/06 04:56:10;;;;;;;9.80;8.90;;;12.40;99.90;;;;;;5047863;28;20262;-76
2022/05/06 04:58:35;;;;;;;9.93;8.82;;;12.40;99.90;;;;;;5052507;28;20208;-77
2022/05/06 05:01:01;;;;;;;9.55;8.65;;;12.40;99.90;;;;;;5053160;28;20188;-76
2022/05/06 05:03:28;;;;;;;9.25;8.45;;;12.50;99.90;;;;;;5047690;28;20188;-76
2022/05/06 05:05:54;;;;;;;9.77;8.88;;;12.50;99.90;;;;;;5038543;28;20222;-76
2022/05/06 05:08:20;;;;;;;9.55;8.57;;;12.60;99.90;;;;;;5059582;28;20190;-76
2022/05/06 05:10:46;;;;;;;9.13;8.32;;;12.60;99.90;;;;;;5055649;28;20184;-77
2022/05/06 05:13:11;;;;;;;10.98;9.90;;;12.70;99.90;;;;;;5036696;28;20298;-76
2022/05/06 05:15:37;;;;;;;9.88;9.10;;;12.80;99.90;;;;;;5037756;28;20180;-78
2022/05/06 05:18:03;;;;;;;8.57;7.63;;;12.80;99.90;;;;;;5052433;28;20542;-76
2022/05/06 05:20:29;;;;;;;9.23;8.32;;;13.00;99.90;;;;;;5048989;28;20176;-76
2022/05/06 05:22:55;;;;;;;8.98;8.13;;;12.90;99.90;;;;;;5056092;28;20183;-77
2022/05/06 05:25:21;;;;;;;8.70;7.90;;;13.00;99.90;;;;;;5061631;28;20274;-77
2022/05/06 05:27:46;;;;;;;11.13;7.30;;;13.10;99.90;;;;;;5058114;28;20678;-78
2022/05/06 05:30:12;;;;;;;8.43;7.60;;;13.30;99.90;;;;;;5059806;28;20183;-77
2022/05/06 05:32:39;;;;;;;8.32;7.20;;;13.30;99.90;;;;;;5045600;28;20274;-77
2022/05/06 05:35:05;;;;;;;8.90;8.00;;;13.50;99.90;;;;;;5051262;28;20180;-77
2022/05/06 05:37:31;;;;;;;8.10;7.30;;;13.50;99.90;;;;;;5053742;28;20769;-77
2022/05/06 05:39:56;;;;;;;7.13;6.53;;;13.60;99.90;;;;;;5053805;28;20565;-76
2022/05/06 05:42:23;;;;;;;6.95;6.45;;;13.60;99.90;;;;;;5059182;28;20262;-77
2022/05/06 05:50:18;;;;;;;7.57;6.82;;;14.20;99.90;;;;;;5047564;28;20525;-77
2022/05/06 05:52:44;;;;;;;7.07;6.57;;;14.30;99.90;;;;;;5058562;28;20196;-77
2022/05/06 05:55:11;;;;;;;7.78;6.63;;;14.30;99.90;;;;;;5048604;28;20525;-77
2022/05/06 05:57:36;;;;;;;9.77;6.85;;;14.30;99.90;;;;;;5053102;28;20630;-77
2022/05/06 06:00:05;;;;;;;10.15;7.60;;;14.40;99.90;;;;;;5049744;28;20171;-77
2022/05/06 06:02:31;;;;;;;6.70;6.18;;;14.60;99.90;;;;;;5021644;28;20184;-77
2022/05/06 06:04:57;;;;;;;6.35;5.75;;;14.70;99.90;;;;;;5054788;28;20722;-77
2022/05/06 06:07:23;;;;;;;6.75;6.05;;;14.90;99.90;;;;;;5058623;28;20282;-77
2022/05/06 06:09:48;;;;;;;6.65;6.03;;;15.00;99.90;;;;;;5054739;28;20184;-77
2022/05/06 06:12:14;;;;;;;5.97;5.47;;;15.10;99.90;;;;;;5055714;28;20281;-77
2022/05/06 06:14:40;;;;;;;5.05;4.55;;;15.30;99.90;;;;;;5050344;28;20650;-77
2022/05/06 06:17:05;;;;;;;6.10;5.60;;;15.50;99.90;;;;;;5049775;28;20760;-77
2022/05/06 06:19:31;;;;;;;5.28;4.78;;;15.50;99.90;;;;;;5059929;28;20180;-77
2022/05/06 06:21:57;;;;;;;5.22;4.72;;;15.40;99.90;;;;;;5042196;28;20272;-77
2022/05/06 06:24:22;;;;;;;5.50;4.97;;;15.50;99.90;;;;;;5052795;28;20265;-77
2022/05/06 06:26:48;;;;;;;5.50;4.82;;;15.60;99.90;;;;;;5044460;28;20200;-77
2022/05/06 06:29:14;;;;;;;5.70;5.20;;;15.40;99.90;;;;;;5046701;28;20604;-77
2022/05/06 06:31:39;;;;;;;7.15;5.43;;;15.40;99.90;;;;;;5055055;28;20207;-76
2022/05/06 06:34:05;;;;;;;5.15;4.75;;;15.40;99.90;;;;;;5050791;28;20245;-77
2022/05/06 06:36:31;;;;;;;5.65;4.95;;;15.40;99.90;;;;;;5046050;28;20195;-78
2022/05/06 06:38:56;;;;;;;5.82;4.70;;;15.70;99.90;;;;;;5047161;28;20176;-77
2022/05/06 06:41:22;;;;;;;5.45;4.95;;;16.10;99.90;;;;;;5042817;28;20172;-77
2022/05/06 06:43:48;;;;;;;5.88;4.88;;;16.00;99.90;;;;;;5052038;28;20184;-77
2022/05/06 06:46:15;;;;;;;4.93;4.53;;;16.10;99.90;;;;;;5055719;28;20554;-77
2022/05/06 06:48:41;;;;;;;5.20;4.80;;;16.30;99.90;;;;;;5045416;28;20225;-77
2022/05/06 06:51:07;;;;;;;5.45;4.28;;;16.40;99.90;;;;;;5058472;28;20180;-77
2022/05/06 06:53:33;;;;;;;10.55;5.10;;;16.40;99.90;;;;;;5052961;28;20229;-77
2022/05/06 06:55:59;;;;;;;5.00;4.60;;;16.60;99.90;;;;;;5045329;28;20195;-77
2022/05/06 06:58:27;;;;;;;6.75;4.63;;;16.60;99.90;;;;;;5052654;28;20191;-77
2022/05/06 07:00:53;;;;;;;5.18;4.35;;;16.60;99.90;;;;;;5053378;28;20194;-77
2022/05/06 07:03:20;;;;;;;5.07;4.57;;;16.60;99.90;;;;;;5050077;28;20665;-77
2022/05/06 07:13:59;;;;;;;6.28;4.35;;;17.50;99.90;;;;;;5059282;28;20212;-77
2022/05/06 07:16:24;;;;;;;4.15;3.75;;;18.00;99.90;;;;;;5052290;28;20196;-78
2022/05/06 07:18:50;;;;;;;6.65;4.00;;;18.20;99.90;;;;;;5067099;28;20175;-78
2022/05/06 07:21:16;;;;;;;5.07;3.55;;;18.30;99.90;;;;;;5066122;28;20172;-78
2022/05/06 07:23:42;;;;;;;4.28;3.88;;;18.50;99.90;;;;;;5064416;28;20720;-77
2022/05/06 07:26:07;;;;;;;4.35;3.88;;;18.30;99.90;;;;;;5054919;28;20208;-77
2022/05/06 07:28:33;;;;;;;4.43;4.03;;;18.00;99.90;;;;;;5056620;28;20204;-77
2022/05/06 07:30:59;;;;;;;3.53;3.33;;;17.90;99.90;;;;;;5048868;28;20179;-78
2022/05/06 07:33:24;;;;;;;3.58;3.28;;;18.00;99.90;;;;;;5053156;28;20692;-78
2022/05/06 07:35:50;;;;;;;4.05;3.63;;;18.20;99.90;;;;;;5045897;28;20180;-77
2022/05/06 07:38:16;;;;;;;5.68;3.78;;;18.40;99.90;;;;;;5046506;28;20595;-78
2022/05/06 07:40:41;;;;;;;4.22;3.45;;;18.60;99.90;;;;;;5050969;28;20216;-78
2022/05/06 07:43:07;;;;;;;6.35;3.67;;;18.70;99.90;;;;;;5053479;28;20563;-78
2022/05/06 07:45:32;;;;;;;3.78;3.38;;;18.70;99.90;;;;;;5045265;28;20176;-78
2022/05/06 07:48:00;;;;;;;4.20;3.40;;;18.80;99.90;;;;;;5064197;28;20640;-78
2022/05/06 07:50:26;;;;;;;3.38;3.08;;;19.10;99.90;;;;;;5056918;28;20268;-78
2022/05/06 07:52:52;;;;;;;5.03;3.58;;;19.40;99.90;;;;;;5052211;28;20225;-78
2022/05/06 07:55:19;;;;;;;3.40;3.20;;;19.80;99.90;;;;;;5051563;28;20222;-78
2022/05/06 07:57:46;;;;;;;4.63;3.50;;;19.90;99.90;;;;;;5047693;28;20617;-77
2022/05/06 08:00:13;;;;;;;6.22;3.42;;;19.80;99.90;;;;;;5039487;28;20216;-78
2022/05/06 08:05:27;;;;;;;5.90;4.28;;;20.00;99.90;;;;;;5052830;28;20832;-78
2022/05/06 08:07:54;;;;;;;8.65;3.92;;;20.00;99.90;;;;;;5047489;28;20571;-77
2022/05/06 08:10:20;;;;;;;7.55;3.90;;;20.20;99.90;;;;;;5052287;28;20716;-78
2022/05/06 08:12:46;;;;;;;4.20;3.90;;;20.40;99.90;;;;;;5051073;28;20235;-79
2022/05/06 08:15:12;;;;;;;4.57;4.18;;;20.50;99.90;;;;;;5043310;28;20180;-79
2022/05/06 08:17:39;;;;;;;3.90;3.47;;;20.80;99.90;;;;;;5050241;28;20200;-79
2022/05/06 08:20:09;;;;;;;5.13;4.00;;;20.90;99.20;;;;;;5054589;28;20729;-78
2022/05/06 08:22:36;;;;;;;5.55;4.03;;;20.90;99.70;;;;;;5058636;28;20556;-78
2022/05/06 08:25:05;;;;;;;5.07;4.60;;;20.60;99.90;;;;;;5058222;28;20245;-78
2022/05/06 08:27:37;;;;;;;3.92;3.63;;;20.90;99.70;;;;;;5039867;28;20215;-78
2022/05/06 08:30:05;;;;;;;6.40;3.95;;;21.00;99.30;;;;;;5047324;28;20191;-79
2022/05/06 08:32:30;;;;;;;4.45;4.05;;;21.20;98.30;;;;;;5052684;28;20230;-78
2022/05/06 08:34:56;;;;;;;3.85;3.60;;;21.50;97.90;;;;;;5052706;28;20215;-78
2022/05/06 08:37:22;;;;;;;5.45;3.95;;;21.80;97.60;;;;;;5043395;28;20287;-77
2022/05/06 08:39:47;;;;;;;7.18;4.13;;;21.90;97.10;;;;;;5048723;28;20179;-78
2022/05/06 08:42:19;;;;;;;6.70;4.10;;;21.90;96.40;;;;;;5045477;28;20244;-78
2022/05/06 08:53:03;;;;;;;5.82;4.30;;;22.20;97.00;;;;;;5045470;28;20225;-78
2022/05/06 08:55:28;;;;;;;4.97;4.55;;;22.50;95.60;;;;;;5039251;28;20493;-78
2022/05/06 08:57:55;;;;;;;4.57;4.28;;;22.70;95.80;;;;;;5052649;28;20219;-78
2022/05/06 09:00:24;;;;;;;5.05;4.43;;;22.80;95.00;;;;;;5056384;28;20195;-78
2022/05/06 09:02:51;;;;;;;4.72;4.40;;;22.70;95.40;;;;;;5049618;28;20180;-78
2022/05/06 09:05:18;;;;;;;6.15;4.75;;;23.00;94.40;;;;;;5049417;28;20709;-78
2022/05/06 09:07:57;;;;;;;5.20;4.60;;;22.90;94.60;;;;;;5051802;28;20259;-78
2022/05/06 09:10:23;;;;;;;10.80;4.55;;;22.90;94.30;;;;;;5050986;28;20313;-78
2022/05/06 09:12:53;;;;;;;5.30;4.80;;;23.20;94.30;;;;;;5051612;28;20208;-78
2022/05/06 09:18:07;;;;;;;5.03;4.63;;;23.40;93.50;;;;;;5045610;28;20556;-78
2022/05/06 09:20:34;;;;;;;4.93;4.47;;;23.10;93.10;;;;;;5025270;28;20540;-78
2022/05/06 09:23:25;;;;;;;4.88;4.45;;;22.90;93.30;;;;;;5049570;28;20177;-79
2022/05/06 09:25:52;;;;;;;5.47;4.88;;;22.60;93.90;;;;;;5042237;28;20207;-78
2022/05/06 09:28:32;;;;;;;4.93;4.53;;;22.30;93.80;;;;;;5052167;28;20184;-78
2022/05/06 09:31:10;;;;;;;5.45;5.05;;;22.00;94.80;;;;;;5051475;28;20763;-78
2022/05/06 09:33:40;;;;;;;5.35;4.88;;;21.80;95.30;;;;;;5044895;28;20267;-79
2022/05/06 09:36:31;;;;;;;5.10;4.80;;;21.70;96.10;;;;;;5047941;28;20203;-78
2022/05/06 09:39:05;;;;;;;6.55;5.30;;;21.70;96.20;;;;;;5058132;28;20179;-78
2022/05/06 09:41:31;;;;;;;5.53;5.05;;;21.60;96.30;;;;;;5043368;28;20223;-78
2022/05/06 09:44:02;;;;;;;5.60;5.03;;;21.60;97.00;;;;;;5052674;28;20782;-78
2022/05/06 09:46:27;;;;;;;6.90;5.10;;;21.40;97.40;;;;;;5048018;28;20280;-78
2022/05/06 09:48:57;;;;;;;5.07;4.70;;;21.40;97.80;;;;;;5044944;28;20185;-79
2022/05/06 09:51:33;;;;;;;7.93;5.80;;;21.20;98.10;;;;;;5049558;28;20182;-78
2022/05/06 09:53:59;;;;;;;6.18;5.68;;;21.00;98.60;;;;;;5053021;28;20262;-78
2022/05/06 09:56:27;;;;;;;7.97;5.70;;;21.10;98.70;;;;;;5044805;28;20200;-78
2022/05/06 09:58:53;;;;;;;8.43;5.53;;;21.20;99.30;;;;;;5048440;28;20562;-78
2022/05/06 10:01:20;;;;;;;6.35;5.75;;;21.20;99.00;;;;;;5046310;28;20734;-78
2022/05/06 10:03:47;;;;;;;6.28;5.50;;;21.10;99.00;;;;;;5054746;28;20278;-78
2022/05/06 10:06:13;;;;;;;7.25;5.80;;;21.10;99.90;;;;;;5056304;28;20685;-78
2022/05/06 10:08:47;;;;;;;5.78;5.35;;;21.10;99.90;;;;;;5062472;28;20187;-78
2022/05/06 10:11:17;;;;;;;6.40;5.80;;;21.10;99.90;;;;;;5063021;28;20235;-78
2022/05/06 10:13:45;;;;;;;6.50;5.95;;;20.90;99.60;;;;;;5061652;28;20206;-78
2022/05/06 10:16:11;;;;;;;5.88;5.20;;;20.80;99.80;;;;;;5049910;28;20195;-78
2022/05/06 10:18:42;;;;;;;10.27;5.88;;;20.90;99.90;;;;;;5053802;28;20689;-79
2022/05/06 10:21:09;;;;;;;6.28;5.68;;;21.00;99.00;;;;;;5054027;28;20186;-78
2022/05/06 10:23:54;;;;;;;6.63;5.88;;;20.90;99.50;;;;;;5063672;28;20190;-78
2022/05/06 10:26:40;;;;;;;6.22;5.68;;;20.80;99.40;;;;;;5057927;28;20203;-78
2022/05/06 10:34:55;;;;;;;6.63;5.93;;;21.10;99.90;;;;;;5063704;28;20193;-78
2022/05/06 10:37:22;;;;;;;6.47;5.88;;;21.60;99.70;;;;;;5060025;28;20199;-78
2022/05/06 10:39:48;;;;;;;6.07;5.68;;;21.80;98.70;;;;;;5066729;28;20574;-78
2022/05/06 10:42:16;;;;;;;9.30;7.38;;;22.00;98.70;;;;;;5052305;28;20188;-78
2022/05/06 10:44:45;;;;;;;6.70;6.00;;;22.20;97.90;;;;;;5058579;28;20657;-78
2022/05/06 10:47:13;;;;;;;6.20;5.55;;;22.50;97.30;;;;;;5058651;28;20203;-78
2022/05/06 10:49:39;;;;;;;7.53;6.30;;;22.40;97.20;;;;;;5060658;28;20210;-78
2022/05/06 10:52:18;;;;;;;5.97;5.38;;;22.60;96.70;;;;;;5058598;28;20239;-79
2022/05/06 10:54:48;;;;;;;5.65;5.25;;;23.00;96.60;;;;;;5061870;28;20199;-78
2022/05/06 10:57:15;;;;;;;6.22;5.68;;;23.40;96.40;;;;;;5054746;28;20684;-78
2022/05/06 10:59:50;;;;;;;6.43;5.75;;;23.50;95.10;;;;;;5050318;28;20741;-78
2022/05/06 11:02:16;;;;;;;6.82;5.78;;;23.50;94.30;;;;;;5044031;28;20540;-78
2022/05/06 11:04:50;;;;;;;6.60;6.00;;;23.70;93.90;;;;;;5046128;28;20182;-78
2022/05/06 11:07:17;;;;;;;5.50;5.10;;;23.20;94.30;;;;;;5043030;28;20196;-78
2022/05/06 11:09:43;;;;;;;10.65;5.72;;;22.90;94.70;;;;;;5049250;28;20203;-78
2022/05/06 11:12:09;;;;;;;6.22;5.70;;;22.70;95.50;;;;;;5051340;28;20678;-78
2022/05/06 11:14:34;;;;;;;5.85;5.35;;;22.30;96.30;;;;;;5048836;28;20183;-79
2022/05/06 11:17:17;;;;;;;5.90;5.45;;;22.20;96.10;;;;;;5041972;28;20206;-78
2022/05/06 11:19:42;;;;;;;6.50;5.90;;;22.40;95.90;;;;;;5055045;28;20278;-79
2022/05/06 11:22:08;;;;;;;5.25;4.85;;;22.40;96.00;;;;;;5045456;28;20647;-78
2022/05/06 11:24:34;;;;;;;6.95;6.22;;;22.40;96.60;;;;;;5046020;28;20193;-78
2022/05/06 11:27:13;;;;;;;6.07;5.47;;;22.60;95.30;;;;;;5041922;28;20204;-78
2022/05/06 11:29:57;;;;;;;6.30;5.70;;;22.10;95.70;;;;;;5046759;28;20181;-78
2022/05/06 11:32:27;;;;;;;5.47;5.00;;;22.20;96.20;;;;;;5046066;28;20206;-78
2022/05/06 11:34:59;;;;;;;6.15;5.53;;;22.20;96.40;;;;;;5056873;28;20172;-78
2022/05/06 11:37:27;;;;;;;6.18;5.00;;;22.30;96.20;;;;;;5040025;28;20200;-78
2022/05/06 11:40:38;;;;;;;6.68;6.07;;;22.40;96.70;;;;;;5047690;28;20230;-78
2022/05/06 11:42:40;;;;;;;6.10;5.60;;;22.50;96.00;;;;;;5036822;28;20221;-78
2022/05/06 11:48:10;;;;;;;5.97;5.47;;;23.20;95.50;;;;;;5027099;28;20589;-78
2022/05/06 11:50:37;;;;;;;5.55;5.15;;;23.10;95.80;;;;;;5041220;28;20266;-78
2022/05/06 11:53:08;;;;;;;6.03;5.47;;;23.40;95.70;;;;;;5048187;28;20246;-78
2022/05/06 11:55:36;;;;;;;5.93;5.50;;;24.00;94.30;;;;;;5039809;28;20207;-78
2022/05/06 11:58:06;;;;;;;6.05;5.15;;;24.30;94.00;;;;;;5048358;28;20220;-78
2022/05/06 12:00:32;;;;;;;4.88;4.57;;;24.90;92.80;;;;;;5028989;28;20260;-78
2022/05/06 12:03:04;;;;;;;5.55;5.15;;;25.30;92.20;;;;;;5022311;28;21576;-76
2022/05/06 12:05:30;;;;;;;6.10;5.25;;;25.70;91.10;;;;;;5048267;28;20188;-75
2022/05/06 12:07:56;;;;;;;5.55;5.07;;;25.90;90.80;;;;;;5050128;28;20617;-75
2022/05/06 12:10:25;;;;;;;6.78;5.95;;;26.00;90.20;;;;;;5040353;28;20187;-75
2022/05/06 12:12:56;;;;;;;6.63;5.30;;;25.90;89.50;;;;;;5053624;28;20204;-76
2022/05/06 12:15:37;;;;;;;5.30;4.90;;;25.90;88.50;;;;;;5045424;28;20235;-76
2022/05/06 12:18:11;;;;;;;5.50;5.18;;;25.90;87.60;;;;;;5032861;28;20728;-76
2022/05/06 12:20:40;;;;;;;5.50;5.00;;;25.10;90.10;;;;;;5027849;28;20611;-76
2022/05/06 12:23:08;;;;;;;5.63;5.13;;;24.80;90.50;;;;;;5040265;28;20184;-76
2022/05/06 12:25:35;;;;;;;6.00;5.60;;;24.50;91.10;;;;;;5042573;28;20188;-76
2022/05/06 12:28:17;;;;;;;5.80;5.30;;;24.30;91.10;;;;;;5045018;28;20184;-76
2022/05/06 12:30:44;;;;;;;6.00;5.03;;;24.20;91.30;;;;;;5042228;28;20245;-75
2022/05/06 12:33:15;;;;;;;6.20;5.60;;;24.20;91.20;;;;;;5037266;28;20200;-78
2022/05/06 12:36:04;;;;;;;5.30;4.90;;;23.60;91.20;;;;;;5041218;28;20180;-78
2022/05/06 12:38:39;;;;;;;5.78;5.28;;;22.90;92.80;;;;;;5030285;28;20190;-78
2022/05/06 12:41:21;;;;;;;6.05;5.60;;;22.40;93.40;;;;;;5043824;28;20770;-78
2022/05/06 12:43:48;;;;;;;5.38;4.97;;;21.80;94.40;;;;;;5042241;28;20181;-78
2022/05/06 12:46:36;;;;;;;6.22;5.45;;;21.40;95.80;;;;;;5043147;28;20203;-78
2022/05/06 12:51:46;;;;;;;5.15;4.85;;;21.10;97.40;;;;;;5041268;28;20230;-77
2022/05/06 12:54:13;;;;;;;5.70;5.18;;;21.00;96.80;;;;;;5052334;28;20599;-78
2022/05/06 12:56:39;;;;;;;4.60;4.30;;;21.00;96.20;;;;;;5043114;28;20201;-79
2022/05/06 12:59:06;;;;;;;4.97;4.60;;;21.00;96.80;;;;;;5050015;28;20191;-78
2022/05/06 13:01:32;;;;;;;5.10;4.70;;;20.90;96.60;;;;;;5047698;28;20200;-78
2022/05/06 13:03:58;;;;;;;5.60;5.10;;;20.90;97.70;;;;;;5036658;28;20249;-78
2022/05/06 13:06:24;;;;;;;5.82;5.32;;;20.70;98.10;;;;;;5040155;28;20204;-78
2022/05/06 13:08:50;;;;;;;6.63;6.00;;;20.40;99.20;;;;;;5040408;28;20188;-78
2022/05/06 13:11:15;;;;;;;6.85;5.85;;;20.20;99.50;;;;;;5039793;28;20181;-78
2022/05/06 13:13:41;;;;;;;5.88;5.15;;;19.80;99.90;;;;;;5038244;28;20207;-78
2022/05/06 13:16:08;;;;;;;5.75;5.25;;;19.50;99.90;;;;;;5046387;28;20199;-78
2022/05/06 13:18:34;;;;;;;6.75;5.28;;;19.30;99.90;;;;;;5049498;28;20225;-78
2022/05/06 13:21:00;;;;;;;6.53;6.03;;;19.00;99.90;;;;;;5041116;28;20172;-78
2022/05/06 13:23:25;;;;;;;6.00;5.55;;;19.00;99.90;;;;;;5040710;28;20604;-78
2022/05/06 13:25:52;;;;;;;8.20;5.65;;;19.20;99.90;;;;;;5029799;28;20647;-79
2022/05/06 13:28:19;;;;;;;6.10;5.70;;;19.20;99.90;;;;;;5038958;28;20263;-78
2022/05/06 13:30:44;;;;;;;6.70;6.10;;;19.20;99.90;;;;;;5044232;28;20668;-78
2022/05/06 13:33:10;;;;;;;7.72;7.03;;;19.00;99.90;;;;;;5029419;28;20211;-78
2022/05/06 13:35:35;;;;;;;7.07;6.47;;;18.80;99.90;;;;;;5049262;28;20164;-79